Ghaziabad Weather



Ghaziabad's Current Weather

Temprature 30.01o clear sky

clear sky

Rain: 0 %

Min Temprature30.01o
Max Temprature30.01o
Humidity42
Wind Speed4.69 m/h
Sun Rise05:10:26
Sun Set19:01:28
Current Time: 24-May-2022 08:54:18
Lat/Lon: 30.3982, 72.7553




Ghaziabad's Geo Location



Ghaziabad's Weather Forecast

Time Overall Temp Min Temp Max Temp Humidity Wind Speed Rain
24-May-2022 (Tue)
11:00:00 clear sky 30.120 30.120 34.330 41 4.73 m/h 0 %
14:00:00 clear sky 34.510 34.510 37.760 29 4.67 m/h 0 %
17:00:00 clear sky 37.400 37.400 37.400 18 4.15 m/h 0 %
20:00:00 clear sky 32.660 32.660 32.660 24 4.71 m/h 0 %
23:00:00 clear sky 29.640 29.640 29.640 29 3.32 m/h 0 %
25-May-2022 (Wed)
02:00:00 clear sky 28.360 28.360 28.360 32 3.09 m/h 0 %
05:00:00 clear sky 27.200 27.200 27.200 34 2.82 m/h 0 %
08:00:00 clear sky 33.420 33.420 33.420 23 3.38 m/h 0 %
11:00:00 clear sky 38.490 38.490 38.490 15 1.8 m/h 0 %
14:00:00 clear sky 40.930 40.930 40.930 12 2.27 m/h 0 %
17:00:00 clear sky 40.900 40.900 40.900 11 1.85 m/h 0 %
20:00:00 clear sky 36.400 36.400 36.400 14 1.93 m/h 0 %
23:00:00 clear sky 32.720 32.720 32.720 21 3.61 m/h 0 %
26-May-2022 (Thu)
02:00:00 clear sky 31.580 31.580 31.580 23 3.38 m/h 0 %
05:00:00 clear sky 30.280 30.280 30.280 24 3.47 m/h 0 %
08:00:00 clear sky 37.570 37.570 37.570 15 4.74 m/h 0 %
11:00:00 clear sky 43.150 43.150 43.150 10 4.3 m/h 0 %
14:00:00 clear sky 45.200 45.200 45.200 9 3.05 m/h 0 %
17:00:00 clear sky 45.490 45.490 45.490 8 0.87 m/h 0 %
20:00:00 clear sky 39.390 39.390 39.390 11 2.62 m/h 0 %
23:00:00 clear sky 35.310 35.310 35.310 16 3.56 m/h 0 %
27-May-2022 (Fri)
02:00:00 clear sky 33.660 33.660 33.660 18 3.59 m/h 0 %
05:00:00 clear sky 32.620 32.620 32.620 27 3.61 m/h 0 %
08:00:00 clear sky 35.500 35.500 35.500 36 6.69 m/h 0 %
11:00:00 clear sky 42.110 42.110 42.110 20 4.3 m/h 0 %
14:00:00 clear sky 46.550 46.550 46.550 12 2.89 m/h 0 %
17:00:00 clear sky 47.670 47.670 47.670 6 3.15 m/h 0 %
20:00:00 clear sky 40.670 40.670 40.670 7 1.91 m/h 0 %
23:00:00 clear sky 38.470 38.470 38.470 15 6.02 m/h 0 %
28-May-2022 (Sat)
02:00:00 clear sky 33.840 33.840 33.840 16 4.84 m/h 0 %
05:00:00 clear sky 33.090 33.090 33.090 21 7.35 m/h 0 %
08:00:00 clear sky 38.330 38.330 38.330 15 8.37 m/h 0 %
11:00:00 clear sky 45.010 45.010 45.010 5 7.11 m/h 0 %
14:00:00 clear sky 47.830 47.830 47.830 2 5.67 m/h 0 %
17:00:00 clear sky 46.940 46.940 46.940 5 4.74 m/h 0 %
20:00:00 clear sky 39.970 39.970 39.970 5 4.21 m/h 0 %
23:00:00 clear sky 36.410 36.410 36.410 7 4.61 m/h 0 %
29-May-2022 (Sun)
02:00:00 clear sky 31.890 31.890 31.890 9 0.15 m/h 0 %
05:00:00 clear sky 28.950 28.950 28.950 13 2.01 m/h 0 %
08:00:00 clear sky 35.100 35.100 35.100 9 0.32 m/h 0 %

Famous Cities (61)